Shinryu Maru — JD3969 — position and weather

sailwx.info

Track history (hours):
 
Tides and Currents Weather Stations Pressure Air Temp Water Temp Dewpoint Dewpoint Depression Visibility Wind Speed Wind Dir Waves Ship Positions

Shinryu Maru

Last reported at 2018-Feb-23 04:56 UTC. Time now 2018-Feb-23 08:32 UTC.
Position N 34°00' E 132°45'.

Length 84 m; draft 5 m.

Type: Cargo ship. MMSI: 431007228.

Date/timePositionNaut miles runAvg speedWind from/ knotsBaromVisibWave heightAir tempDewpointWater temp
2018-Feb-23 04:56N 34°00' E 132°45'713.9
2018-Feb-23 04:25N 33°55' E 132°39'613.9
2018-Feb-23 04:00N 33°51' E 132°34'813.6
2018-Feb-23 03:26N 33°46' E 132°27'613.7
2018-Feb-23 02:58N 33°42' E 132°20'2413.5
2018-Feb-23 01:13N 33°28' E 131°57'313.6
2018-Feb-23 00:59N 33°26' E 131°54'613.0
2018-Feb-23 00:30N 33°23' E 131°48'713.1
2018-Feb-23 00:00N 33°19' E 131°42'3 4.9
2018-Feb-22 23:21N 33°17' E 131°39'0 0.0
2018-Feb-22 22:58N 33°17' E 131°39'0 0.1
2018-Feb-22 22:19N 33°17' E 131°39'0 0.2
2018-Feb-22 21:58N 33°17' E 131°39'0 0.0
2018-Feb-22 17:49N 33°17' E 131°39'1 1.6
2018-Feb-22 17:17N 33°16' E 131°40'0 0.0
2018-Feb-22 17:00N 33°16' E 131°40'0 0.0
2018-Feb-22 15:58N 33°16' E 131°40'0 0.0
2018-Feb-22 15:27N 33°16' E 131°40'0 0.0
2018-Feb-22 14:58N 33°16' E 131°40'0 0.0
2018-Feb-22 14:30N 33°16' E 131°40'0 0.0
2018-Feb-22 13:59N 33°16' E 131°40'0 0.0
2018-Feb-22 13:29N 33°16' E 131°40'0 0.0
2018-Feb-22 13:00N 33°16' E 131°40'0 0.0
2018-Feb-22 12:26N 33°16' E 131°40'0 0.0
2018-Feb-22 12:00N 33°16' E 131°40'0 0.0
2018-Feb-22 11:29N 33°16' E 131°40'0 0.0
2018-Feb-22 10:48N 33°16' E 131°40'0 0.0
2018-Feb-22 10:29N 33°16' E 131°40'0 0.0
2018-Feb-22 09:59N 33°16' E 131°40'0 0.0
2018-Feb-22 09:28N 33°16' E 131°40'0 0.0
2018-Feb-22 09:00N 33°16' E 131°40'0 0.0
2018-Feb-22 08:30N 33°16' E 131°40'3 5.2
2018-Feb-22 08:00N 33°18' E 131°40'814.2
2018-Feb-22 07:28N 33°25' E 131°44'715.0
2018-Feb-22 07:00N 33°32' E 131°48'714.9
2018-Feb-22 06:30N 33°39' E 131°50'714.4
2018-Feb-22 06:00N 33°46' E 131°53'713.9
2018-Feb-22 05:30N 33°52' E 131°55'5 9.5
2018-Feb-22 04:59N 33°57' E 131°56'0 0.0
2018-Feb-22 04:29N 33°57' E 131°56'0 0.0
2018-Feb-22 04:00N 33°57' E 131°56'0 0.0
2018-Feb-22 03:30N 33°57' E 131°56'0 0.0
2018-Feb-22 03:00N 33°57' E 131°56'0 0.0
2018-Feb-22 02:30N 33°57' E 131°56'0 0.0
2018-Feb-22 02:00N 33°57' E 131°56'0 0.0
2018-Feb-22 01:30N 33°57' E 131°56'0 0.0
2018-Feb-22 01:00N 33°57' E 131°56'0 0.0
2018-Feb-22 00:30N 33°57' E 131°56'0 0.0
2018-Feb-22 00:00N 33°57' E 131°56'0 0.0
2018-Feb-21 23:30N 33°57' E 131°56'0 0.0
2018-Feb-21 23:00N 33°57' E 131°56'0 0.0
2018-Feb-21 22:30N 33°57' E 131°56'0 0.0
2018-Feb-21 22:00N 33°57' E 131°56'0 0.0
2018-Feb-21 21:30N 33°57' E 131°56'0 0.0
2018-Feb-21 21:00N 33°57' E 131°56'0 0.0
2018-Feb-21 20:30N 33°57' E 131°56'0 0.0
2018-Feb-21 20:00N 33°57' E 131°56'0 0.0
2018-Feb-21 19:30N 33°57' E 131°56'0 0.9
2018-Feb-21 19:00N 33°57' E 131°56'510.6
2018-Feb-21 18:30N 33°52' E 131°55'613.0
2018-Feb-21 18:00N 33°46' E 131°52'612.6
2018-Feb-21 17:30N 33°40' E 131°50'612.5
2018-Feb-21 17:00N 33°34' E 131°48'712.9
2018-Feb-21 16:27N 33°27' E 131°46'613.2
2018-Feb-21 16:00N 33°21' E 131°43'6 9.5
2018-Feb-21 15:21N 33°16' E 131°40'0 0.0
2018-Feb-21 14:58N 33°16' E 131°40'0 0.0
2018-Feb-21 14:20N 33°16' E 131°40'0 0.0
2018-Feb-21 13:33N 33°16' E 131°40'0 0.1
2018-Feb-21 13:28N 33°16' E 131°40'0 0.0
2018-Feb-21 12:56N 33°16' E 131°40'0 0.0
2018-Feb-21 12:28N 33°16' E 131°40'0 0.0
2018-Feb-21 11:57N 33°16' E 131°40'0 0.0
2018-Feb-21 11:11N 33°16' E 131°40'0 0.0
2018-Feb-21 10:59N 33°16' E 131°40'4 7.4
2018-Feb-21 10:30N 33°19' E 131°41'714.0
2018-Feb-21 10:00N 33°25' E 131°45'714.0
2018-Feb-21 09:30N 33°32' E 131°48'714.2
2018-Feb-21 09:00N 33°39' E 131°50'714.3
2018-Feb-21 08:30N 33°45' E 131°53'713.8
2018-Feb-21 08:00N 33°52' E 131°55'510.7
2018-Feb-21 07:30N 33°57' E 131°56'0 0.0
2018-Feb-21 07:00N 33°57' E 131°56'0 0.0
2018-Feb-21 06:30N 33°57' E 131°56'0 0.0
2018-Feb-21 06:00N 33°57' E 131°56'0 0.0
2018-Feb-21 05:31N 33°57' E 131°56'0 0.0
2018-Feb-21 05:00N 33°57' E 131°56'0 0.0
2018-Feb-21 04:31N 33°57' E 131°56'0 0.0
2018-Feb-21 04:01N 33°57' E 131°56'0 0.0
2018-Feb-21 03:27N 33°57' E 131°56'0 0.0
2018-Feb-21 03:00N 33°57' E 131°56'0 0.0
2018-Feb-21 02:29N 33°57' E 131°56'0 0.0
2018-Feb-21 01:59N 33°57' E 131°56'0 0.0
2018-Feb-21 01:29N 33°57' E 131°56'0 0.0
2018-Feb-21 01:00N 33°57' E 131°56'0 0.0
2018-Feb-21 00:30N 33°57' E 131°56'0 0.0
2018-Feb-21 00:01N 33°57' E 131°56'0 0.0
2018-Feb-20 23:30N 33°57' E 131°56'0 0.0
2018-Feb-20 23:01N 33°57' E 131°56'0 0.0
2018-Feb-20 22:30N 33°57' E 131°56'0 0.0
2018-Feb-20 22:00N 33°57' E 131°56'1 2.3
2018-Feb-20 21:31N 33°56' E 131°56'0 0.1
2018-Feb-20 20:37N 33°56' E 131°56'0 0.0
2018-Feb-20 20:28N 33°56' E 131°56'0 0.1
2018-Feb-20 20:00N 33°56' E 131°56'0 0.1
2018-Feb-20 19:31N 33°56' E 131°56'0 0.1
2018-Feb-20 19:01N 33°56' E 131°56'0 0.0
2018-Feb-20 18:29N 33°56' E 131°56'0 0.0
2018-Feb-20 18:01N 33°56' E 131°56'0 0.1
2018-Feb-20 17:30N 33°56' E 131°56'0 0.0
2018-Feb-20 17:00N 33°56' E 131°56'0 0.0
2018-Feb-20 16:29N 33°56' E 131°56'0 0.1
2018-Feb-20 16:01N 33°56' E 131°56'0 0.1
2018-Feb-20 15:30N 33°56' E 131°56'0 0.0
2018-Feb-20 14:58N 33°56' E 131°56'0 0.1
2018-Feb-20 14:24N 33°56' E 131°56'0 0.0
2018-Feb-20 14:00N 33°56' E 131°56'0 0.1
2018-Feb-20 13:30N 33°56' E 131°56'0 0.0
2018-Feb-20 13:01N 33°56' E 131°56'0 0.1
2018-Feb-20 12:25N 33°56' E 131°56'0 0.0
2018-Feb-20 11:43N 33°56' E 131°56'0 0.0
2018-Feb-20 11:23N 33°56' E 131°56'0 0.0
2018-Feb-20 10:58N 33°56' E 131°56'0 0.0
2018-Feb-20 09:07N 33°56' E 131°56'0 0.0
2018-Feb-20 08:39N 33°56' E 131°56'0 0.1
2018-Feb-20 08:29N 33°56' E 131°56'0 0.0
2018-Feb-20 07:58N 33°56' E 131°56'0 0.0
2018-Feb-20 07:31N 33°56' E 131°56'0 0.0
2018-Feb-20 06:11N 33°56' E 131°56'0 0.0
2018-Feb-20 05:58N 33°56' E 131°56'0 0.0
2018-Feb-20 05:27N 33°56' E 131°56'0 0.0
2018-Feb-20 04:54N 33°56' E 131°56'0 0.0
2018-Feb-20 04:29N 33°56' E 131°56'0 0.0
2018-Feb-20 03:47N 33°56' E 131°56'0 0.0
2018-Feb-20 03:29N 33°56' E 131°56'0 0.0
2018-Feb-20 02:52N 33°56' E 131°56'0 0.0
2018-Feb-20 01:32N 33°56' E 131°56'0 0.2
2018-Feb-20 01:31N 33°56' E 131°56'0 0.1
2018-Feb-20 01:00N 33°56' E 131°56'0 0.1
2018-Feb-20 00:09N 33°56' E 131°56'0 0.0
2018-Feb-20 00:00N 33°56' E 131°56'0 0.0
2018-Feb-19 23:30N 33°56' E 131°56'0 0.0
2018-Feb-19 21:56N 33°56' E 131°56'0 0.0
2018-Feb-19 20:28N 33°56' E 131°56'5 9.8
2018-Feb-19 20:00N 33°52' E 131°55'712.8
2018-Feb-19 19:30N 33°45' E 131°53'612.6
2018-Feb-19 19:01N 33°40' E 131°51'611.7
2018-Feb-19 18:30N 33°34' E 131°49'611.6
2018-Feb-19 18:01N 33°29' E 131°47'611.9
2018-Feb-19 17:29N 33°23' E 131°43'8 5.7
2018-Feb-19 16:08N 33°16' E 131°40'0 0.0
2018-Feb-19 16:00N 33°16' E 131°40'0 0.0
2018-Feb-19 15:31N 33°16' E 131°40'0 0.0
2018-Feb-19 15:01N 33°16' E 131°40'0 0.0
2018-Feb-19 14:30N 33°16' E 131°40'0 0.0
2018-Feb-19 14:00N 33°16' E 131°40'0 0.0
2018-Feb-19 13:30N 33°16' E 131°40'0 0.0
2018-Feb-19 13:00N 33°16' E 131°40'0 0.0
2018-Feb-19 12:24N 33°16' E 131°40'0 0.0
2018-Feb-19 10:32N 33°16' E 131°40'0 0.1
2018-Feb-19 10:25N 33°16' E 131°40'0 0.0
2018-Feb-19 10:00N 33°16' E 131°40'3 6.4
2018-Feb-19 09:31N 33°19' E 131°41'713.7
2018-Feb-19 08:59N 33°25' E 131°44'713.6
2018-Feb-19 08:30N 33°31' E 131°47'713.8
2018-Feb-19 08:00N 33°38' E 131°49'713.8
2018-Feb-19 07:30N 33°45' E 131°51'713.8
2018-Feb-19 07:00N 33°51' E 131°54'612.5
2018-Feb-19 06:30N 33°57' E 131°56'0 0.4
2018-Feb-19 06:00N 33°57' E 131°56'0 0.0
2018-Feb-19 05:30N 33°57' E 131°56'0 0.0
2018-Feb-19 05:00N 33°57' E 131°56'0 0.0
2018-Feb-19 04:30N 33°57' E 131°56'0 0.0
2018-Feb-19 03:59N 33°57' E 131°56'0 0.0
2018-Feb-19 03:30N 33°57' E 131°56'0 0.0
2018-Feb-19 03:00N 33°57' E 131°56'0 0.0
2018-Feb-19 02:30N 33°57' E 131°56'0 0.0
2018-Feb-19 01:59N 33°57' E 131°56'0 0.0
2018-Feb-19 01:30N 33°57' E 131°56'0 0.0
2018-Feb-19 01:00N 33°57' E 131°56'0 0.0
2018-Feb-19 00:30N 33°57' E 131°56'0 0.0
2018-Feb-19 00:00N 33°57' E 131°56'0 0.0
2018-Feb-18 23:30N 33°57' E 131°56'0 0.0
2018-Feb-18 23:00N 33°57' E 131°56'0 0.0
2018-Feb-18 22:30N 33°57' E 131°56'0 0.0
2018-Feb-18 22:00N 33°57' E 131°56'0 0.0
2018-Feb-18 21:30N 33°57' E 131°56'0 0.0
2018-Feb-18 21:00N 33°57' E 131°56'0 0.0
2018-Feb-18 20:30N 33°57' E 131°56'2 3.2
2018-Feb-18 20:00N 33°56' E 131°56'712.9
2018-Feb-18 19:29N 33°49' E 131°54'612.7
2018-Feb-18 19:00N 33°43' E 131°52'712.4
2018-Feb-18 18:24N 33°36' E 131°49'611.7
2018-Feb-18 17:54N 33°31' E 131°47'511.7
2018-Feb-18 17:27N 33°26' E 131°45'612.2
2018-Feb-18 17:00N 33°21' E 131°42'5 0.7
2018-Feb-18 09:11N 33°16' E 131°40'0 0.6
2018-Feb-18 08:57N 33°16' E 131°40'0 0.8
2018-Feb-18 08:30N 33°16' E 131°40'4 7.2
2018-Feb-18 08:00N 33°20' E 131°40'2 1.3
2018-Feb-18 06:07N 33°22' E 131°40'0 0.0
2018-Feb-18 05:25N 33°22' E 131°40'0 0.0
2018-Feb-18 04:59N 33°22' E 131°40'0 0.0
2018-Feb-18 03:46N 33°22' E 131°40'0 0.0
2018-Feb-18 03:16N 33°22' E 131°40'0 0.0
2018-Feb-18 01:59N 33°22' E 131°40'0 0.0
2018-Feb-18 01:28N 33°22' E 131°40'0 0.0
2018-Feb-18 00:59N 33°22' E 131°40'0 0.0
2018-Feb-18 00:30N 33°22' E 131°40'0 0.1
2018-Feb-17 23:59N 33°22' E 131°40'0 0.0
2018-Feb-17 23:26N 33°22' E 131°40'0 0.0
2018-Feb-17 22:59N 33°22' E 131°40'0 0.0
2018-Feb-17 22:28N 33°22' E 131°40'0 0.0
2018-Feb-17 20:39N 33°22' E 131°40'0 0.0
2018-Feb-17 14:41N 33°22' E 131°40'0 0.0
2018-Feb-17 14:22N 33°22' E 131°40'0 0.0
2018-Feb-17 14:00N 33°22' E 131°40'0 0.0
2018-Feb-17 13:28N 33°22' E 131°40'0 0.0
2018-Feb-17 12:59N 33°22' E 131°40'0 0.0
2018-Feb-17 12:26N 33°22' E 131°40'0 0.0
2018-Feb-17 12:00N 33°22' E 131°40'0 0.0
2018-Feb-17 11:30N 33°22' E 131°40'0 0.0
2018-Feb-17 11:00N 33°22' E 131°40'0 0.0
2018-Feb-17 10:30N 33°22' E 131°40'1 2.2
2018-Feb-17 10:00N 33°23' E 131°41'612.7
2018-Feb-17 09:30N 33°28' E 131°46'612.4
2018-Feb-17 09:00N 33°34' E 131°47'612.9
2018-Feb-17 08:30N 33°41' E 131°48'713.2
2018-Feb-17 08:00N 33°46' E 131°51'713.5
2018-Feb-17 07:30N 33°53' E 131°53'5 9.8
2018-Feb-17 07:00N 33°57' E 131°56'0 0.0
2018-Feb-17 06:30N 33°57' E 131°56'0 0.0
2018-Feb-17 06:00N 33°57' E 131°56'0 0.0
2018-Feb-17 05:30N 33°57' E 131°56'0 0.0
2018-Feb-17 05:00N 33°57' E 131°56'0 0.0
2018-Feb-17 04:30N 33°57' E 131°56'0 0.0
2018-Feb-17 04:00N 33°57' E 131°56'0 0.0
2018-Feb-17 03:30N 33°57' E 131°56'0 0.0
2018-Feb-17 02:59N 33°57' E 131°56'0 0.0
2018-Feb-17 02:30N 33°57' E 131°56'0 0.0
2018-Feb-17 02:00N 33°57' E 131°56'0 0.0
2018-Feb-17 01:30N 33°57' E 131°56'0 0.0
2018-Feb-17 01:00N 33°57' E 131°56'0 0.0
2018-Feb-17 00:30N 33°57' E 131°56'0 0.0
2018-Feb-16 23:59N 33°57' E 131°56'0 0.0
2018-Feb-16 23:30N 33°57' E 131°56'0 0.0
2018-Feb-16 23:00N 33°57' E 131°56'0 0.0
2018-Feb-16 22:30N 33°57' E 131°56'0 0.0
2018-Feb-16 22:00N 33°57' E 131°56'0 0.0
2018-Feb-16 21:30N 33°57' E 131°56'1 1.7
2018-Feb-16 21:00N 33°57' E 131°56'611.8
2018-Feb-16 20:28N 33°51' E 131°53'613.0
2018-Feb-16 20:00N 33°46' E 131°48'611.8
2018-Feb-16 19:28N 33°40' E 131°50'612.7
2018-Feb-16 19:00N 33°34' E 131°48'812.9
2018-Feb-16 18:21N 33°26' E 131°45'512.6
2018-Feb-16 17:59N 33°22' E 131°44'612.5
2018-Feb-16 17:29N 33°16' E 131°40'1 0.1
2018-Feb-16 10:10N 33°16' E 131°40'0 2.5
2018-Feb-16 09:59N 33°16' E 131°40'511.4
2018-Feb-16 09:30N 33°21' E 131°42'713.3
2018-Feb-16 09:00N 33°27' E 131°46'612.7
2018-Feb-16 08:30N 33°33' E 131°48'713.0
2018-Feb-16 08:00N 33°40' E 131°50'713.5
2018-Feb-16 07:30N 33°46' E 131°52'713.6
2018-Feb-16 07:00N 33°52' E 131°55'510.1
2018-Feb-16 06:30N 33°57' E 131°56'0 0.0
2018-Feb-16 06:00N 33°57' E 131°56'0 0.0
2018-Feb-16 05:30N 33°57' E 131°56'0 0.0
2018-Feb-16 05:00N 33°57' E 131°56'0 0.0
2018-Feb-16 04:30N 33°57' E 131°56'0 0.0
2018-Feb-16 04:00N 33°57' E 131°56'0 0.0
2018-Feb-16 03:30N 33°57' E 131°56'0 0.0
2018-Feb-16 03:00N 33°57' E 131°56'0 0.0
2018-Feb-16 02:28N 33°57' E 131°56'0 0.0
2018-Feb-16 02:00N 33°57' E 131°56'0 0.0
2018-Feb-16 01:30N 33°57' E 131°56'0 0.0
2018-Feb-16 01:00N 33°57' E 131°56'0 0.0
2018-Feb-16 00:30N 33°57' E 131°56'0 0.0
2018-Feb-16 00:00N 33°57' E 131°56'0 0.0
2018-Feb-15 23:30N 33°57' E 131°56'0 0.0
2018-Feb-15 23:00N 33°57' E 131°56'0 0.0
2018-Feb-15 22:30N 33°57' E 131°56'1 1.1
2018-Feb-15 22:00N 33°57' E 131°56'0 0.7
2018-Feb-15 21:25N 33°57' E 131°56'0 0.0
2018-Feb-15 20:55N 33°57' E 131°56'0 0.0
2018-Feb-15 20:27N 33°57' E 131°56'0 0.0
2018-Feb-15 20:00N 33°57' E 131°56'0 0.0
2018-Feb-15 19:26N 33°57' E 131°56'0 0.0
2018-Feb-15 17:59N 33°57' E 131°56'510.1
2018-Feb-15 17:28N 33°52' E 131°55'612.9
2018-Feb-15 16:59N 33°45' E 131°53'611.3
2018-Feb-15 16:29N 33°40' E 131°50'611.6
2018-Feb-15 16:00N 33°35' E 131°49'611.4
2018-Feb-15 15:29N 33°29' E 131°47'711.8
2018-Feb-15 14:56N 33°23' E 131°44'512.7
2018-Feb-15 14:30N 33°18' E 131°41'3 3.5
2018-Feb-15 13:46N 33°16' E 131°40'0 0.0
2018-Feb-15 13:17N 33°16' E 131°40'0 0.0
2018-Feb-15 12:44N 33°16' E 131°40'0 0.0
2018-Feb-15 12:30N 33°16' E 131°40'0 0.0
2018-Feb-15 12:00N 33°16' E 131°40'0 0.0
2018-Feb-15 11:23N 33°16' E 131°40'0 0.0
2018-Feb-15 10:39N 33°16' E 131°40'0 0.0
2018-Feb-15 10:30N 33°16' E 131°40'0 0.0
2018-Feb-15 09:59N 33°16' E 131°40'0 0.0
2018-Feb-15 09:29N 33°16' E 131°40'0 0.0
2018-Feb-15 09:00N 33°16' E 131°40'0 0.0
2018-Feb-15 08:29N 33°16' E 131°40'0 0.0
2018-Feb-15 08:00N 33°16' E 131°40'0 0.0
2018-Feb-15 07:30N 33°16' E 131°40'0 0.0
2018-Feb-15 06:58N 33°16' E 131°40'0 0.0
2018-Feb-15 06:22N 33°16' E 131°40'0 0.0
2018-Feb-15 05:57N 33°16' E 131°40'0 0.0
2018-Feb-15 05:30N 33°16' E 131°40'0 0.0
2018-Feb-15 05:00N 33°16' E 131°40'0 0.0
2018-Feb-15 04:29N 33°16' E 131°40'0 0.0
2018-Feb-15 04:00N 33°16' E 131°40'0 0.0
2018-Feb-15 03:26N 33°16' E 131°40'1 0.8
2018-Feb-15 02:47N 33°16' E 131°40'3 0.2
2018-Feb-14 09:38N 33°15' E 131°36'0 3.6
2018-Feb-14 09:30N 33°15' E 131°36'713.0
2018-Feb-14 08:58N 33°21' E 131°41'613.4
2018-Feb-14 08:29N 33°27' E 131°45'612.6
2018-Feb-14 08:00N 33°32' E 131°47'612.9
2018-Feb-14 07:30N 33°39' E 131°49'612.9
2018-Feb-14 07:00N 33°45' E 131°51'813.2
2018-Feb-14 06:26N 33°52' E 131°54'512.4
2018-Feb-14 06:00N 33°57' E 131°56'0 0.6
2018-Feb-14 05:31N 33°57' E 131°56'0 0.0
2018-Feb-14 05:00N 33°57' E 131°56'0 0.0
2018-Feb-14 04:29N 33°57' E 131°56'0 0.0
2018-Feb-14 04:00N 33°57' E 131°56'0 0.0
2018-Feb-14 03:30N 33°57' E 131°56'0 0.0
2018-Feb-14 03:00N 33°57' E 131°56'0 0.0
2018-Feb-14 02:30N 33°57' E 131°56'0 0.0
2018-Feb-14 01:53N 33°57' E 131°56'0 0.0
2018-Feb-14 01:30N 33°57' E 131°56'0 0.0
2018-Feb-14 00:59N 33°57' E 131°56'0 0.0
2018-Feb-14 00:30N 33°57' E 131°56'0 0.0
2018-Feb-14 00:00N 33°57' E 131°56'0 0.0
2018-Feb-13 23:30N 33°57' E 131°56'0 0.0
2018-Feb-13 23:00N 33°57' E 131°56'0 0.0
2018-Feb-13 22:30N 33°57' E 131°56'0 0.0
2018-Feb-13 22:00N 33°57' E 131°56'1 1.6
2018-Feb-13 21:30N 33°57' E 131°56'0 0.0
2018-Feb-13 21:00N 33°57' E 131°56'0 0.0
2018-Feb-13 20:30N 33°57' E 131°56'0 0.0
2018-Feb-13 20:00N 33°57' E 131°56'0 0.0
2018-Feb-13 19:30N 33°57' E 131°56'0 0.0
2018-Feb-13 19:00N 33°57' E 131°56'0 0.1
2018-Feb-13 18:30N 33°57' E 131°56'0 0.1
2018-Feb-13 18:00N 33°57' E 131°56'0 0.0
2018-Feb-13 17:30N 33°57' E 131°56'0 0.0
2018-Feb-13 17:00N 33°57' E 131°56'0 0.0
2018-Feb-13 16:30N 33°57' E 131°56'0 0.0
2018-Feb-13 15:59N 33°57' E 131°56'0 0.0
2018-Feb-13 15:29N 33°57' E 131°56'0 0.0
2018-Feb-13 15:00N 33°57' E 131°56'0 0.0
2018-Feb-13 14:30N 33°57' E 131°56'0 0.0
2018-Feb-13 14:00N 33°57' E 131°56'0 0.0
2018-Feb-13 13:30N 33°57' E 131°56'0 0.0
2018-Feb-13 13:00N 33°57' E 131°56'0 0.0
2018-Feb-13 12:29N 33°57' E 131°56'0 0.0
2018-Feb-13 12:00N 33°57' E 131°56'0 0.0
2018-Feb-13 11:30N 33°57' E 131°56'0 0.0
2018-Feb-13 10:57N 33°57' E 131°56'0 0.0
2018-Feb-13 10:29N 33°57' E 131°56'0 0.0
2018-Feb-13 10:00N 33°57' E 131°56'0 0.0
2018-Feb-13 09:28N 33°57' E 131°56'0 0.0
2018-Feb-13 09:00N 33°57' E 131°56'0 0.0
2018-Feb-13 08:26N 33°57' E 131°56'0 0.0
2018-Feb-13 07:58N 33°57' E 131°56'0 0.0
2018-Feb-13 07:30N 33°57' E 131°56'0 0.0
2018-Feb-13 06:59N 33°57' E 131°56'0 0.0
2018-Feb-13 06:27N 33°57' E 131°56'1 1.5
2018-Feb-13 05:58N 33°56' E 131°56'  
Track history (hours):
 
Tides and Currents Weather Stations Pressure Air Temp Water Temp Dewpoint Dewpoint Depression Visibility Wind Speed Wind Dir Waves Ship Positions

Shinryu Maru

Last reported at 2018-Feb-23 04:56 UTC. Time now 2018-Feb-23 08:32 UTC.
Position N 34°00' E 132°45'.

Length 84 m; draft 5 m.

Type: Cargo ship. MMSI: 431007228.

Date/timePositionNaut miles runAvg speedWind from/ knotsBaromVisibWave heightAir tempDewpointWater temp
2018-Feb-23 04:56N 34°00' E 132°45'713.9
2018-Feb-23 04:25N 33°55' E 132°39'613.9
2018-Feb-23 04:00N 33°51' E 132°34'813.6
2018-Feb-23 03:26N 33°46' E 132°27'613.7
2018-Feb-23 02:58N 33°42' E 132°20'2413.5
2018-Feb-23 01:13N 33°28' E 131°57'313.6
2018-Feb-23 00:59N 33°26' E 131°54'613.0
2018-Feb-23 00:30N 33°23' E 131°48'713.1
2018-Feb-23 00:00N 33°19' E 131°42'3 4.9
2018-Feb-22 23:21N 33°17' E 131°39'0 0.0
2018-Feb-22 22:58N 33°17' E 131°39'0 0.1
2018-Feb-22 22:19N 33°17' E 131°39'0 0.2
2018-Feb-22 21:58N 33°17' E 131°39'0 0.0
2018-Feb-22 17:49N 33°17' E 131°39'1 1.6
2018-Feb-22 17:17N 33°16' E 131°40'0 0.0
2018-Feb-22 17:00N 33°16' E 131°40'0 0.0
2018-Feb-22 15:58N 33°16' E 131°40'0 0.0
2018-Feb-22 15:27N 33°16' E 131°40'0 0.0
2018-Feb-22 14:58N 33°16' E 131°40'0 0.0
2018-Feb-22 14:30N 33°16' E 131°40'0 0.0
2018-Feb-22 13:59N 33°16' E 131°40'0 0.0
2018-Feb-22 13:29N 33°16' E 131°40'0 0.0
2018-Feb-22 13:00N 33°16' E 131°40'0 0.0
2018-Feb-22 12:26N 33°16' E 131°40'0 0.0
2018-Feb-22 12:00N 33°16' E 131°40'0 0.0
2018-Feb-22 11:29N 33°16' E 131°40'0 0.0
2018-Feb-22 10:48N 33°16' E 131°40'0 0.0
2018-Feb-22 10:29N 33°16' E 131°40'0 0.0
2018-Feb-22 09:59N 33°16' E 131°40'0 0.0
2018-Feb-22 09:28N 33°16' E 131°40'0 0.0
2018-Feb-22 09:00N 33°16' E 131°40'0 0.0
2018-Feb-22 08:30N 33°16' E 131°40'3 5.2
2018-Feb-22 08:00N 33°18' E 131°40'814.2
2018-Feb-22 07:28N 33°25' E 131°44'715.0
2018-Feb-22 07:00N 33°32' E 131°48'714.9
2018-Feb-22 06:30N 33°39' E 131°50'714.4
2018-Feb-22 06:00N 33°46' E 131°53'713.9
2018-Feb-22 05:30N 33°52' E 131°55'5 9.5
2018-Feb-22 04:59N 33°57' E 131°56'0 0.0
2018-Feb-22 04:29N 33°57' E 131°56'0 0.0
2018-Feb-22 04:00N 33°57' E 131°56'0 0.0
2018-Feb-22 03:30N 33°57' E 131°56'0 0.0
2018-Feb-22 03:00N 33°57' E 131°56'0 0.0
2018-Feb-22 02:30N 33°57' E 131°56'0 0.0
2018-Feb-22 02:00N 33°57' E 131°56'0 0.0
2018-Feb-22 01:30N 33°57' E 131°56'0 0.0
2018-Feb-22 01:00N 33°57' E 131°56'0 0.0
2018-Feb-22 00:30N 33°57' E 131°56'0 0.0
2018-Feb-22 00:00N 33°57' E 131°56'0 0.0
2018-Feb-21 23:30N 33°57' E 131°56'0 0.0
2018-Feb-21 23:00N 33°57' E 131°56'0 0.0
2018-Feb-21 22:30N 33°57' E 131°56'0 0.0
2018-Feb-21 22:00N 33°57' E 131°56'0 0.0
2018-Feb-21 21:30N 33°57' E 131°56'0 0.0
2018-Feb-21 21:00N 33°57' E 131°56'0 0.0
2018-Feb-21 20:30N 33°57' E 131°56'0 0.0
2018-Feb-21 20:00N 33°57' E 131°56'0 0.0
2018-Feb-21 19:30N 33°57' E 131°56'0 0.9
2018-Feb-21 19:00N 33°57' E 131°56'510.6
2018-Feb-21 18:30N 33°52' E 131°55'613.0
2018-Feb-21 18:00N 33°46' E 131°52'612.6
2018-Feb-21 17:30N 33°40' E 131°50'612.5
2018-Feb-21 17:00N 33°34' E 131°48'712.9
2018-Feb-21 16:27N 33°27' E 131°46'613.2
2018-Feb-21 16:00N 33°21' E 131°43'6 9.5
2018-Feb-21 15:21N 33°16' E 131°40'0 0.0
2018-Feb-21 14:58N 33°16' E 131°40'0 0.0
2018-Feb-21 14:20N 33°16' E 131°40'0 0.0
2018-Feb-21 13:33N 33°16' E 131°40'0 0.1
2018-Feb-21 13:28N 33°16' E 131°40'0 0.0
2018-Feb-21 12:56N 33°16' E 131°40'0 0.0
2018-Feb-21 12:28N 33°16' E 131°40'0 0.0
2018-Feb-21 11:57N 33°16' E 131°40'0 0.0
2018-Feb-21 11:11N 33°16' E 131°40'0 0.0
2018-Feb-21 10:59N 33°16' E 131°40'4 7.4
2018-Feb-21 10:30N 33°19' E 131°41'714.0
2018-Feb-21 10:00N 33°25' E 131°45'714.0
2018-Feb-21 09:30N 33°32' E 131°48'714.2
2018-Feb-21 09:00N 33°39' E 131°50'714.3
2018-Feb-21 08:30N 33°45' E 131°53'713.8
2018-Feb-21 08:00N 33°52' E 131°55'510.7
2018-Feb-21 07:30N 33°57' E 131°56'0 0.0
2018-Feb-21 07:00N 33°57' E 131°56'0 0.0
2018-Feb-21 06:30N 33°57' E 131°56'0 0.0
2018-Feb-21 06:00N 33°57' E 131°56'0 0.0
2018-Feb-21 05:31N 33°57' E 131°56'0 0.0
2018-Feb-21 05:00N 33°57' E 131°56'0 0.0
2018-Feb-21 04:31N 33°57' E 131°56'0 0.0
2018-Feb-21 04:01N 33°57' E 131°56'0 0.0
2018-Feb-21 03:27N 33°57' E 131°56'0 0.0
2018-Feb-21 03:00N 33°57' E 131°56'0 0.0
2018-Feb-21 02:29N 33°57' E 131°56'0 0.0
2018-Feb-21 01:59N 33°57' E 131°56'0 0.0
2018-Feb-21 01:29N 33°57' E 131°56'0 0.0
2018-Feb-21 01:00N 33°57' E 131°56'0 0.0
2018-Feb-21 00:30N 33°57' E 131°56'0 0.0
2018-Feb-21 00:01N 33°57' E 131°56'0 0.0
2018-Feb-20 23:30N 33°57' E 131°56'0 0.0
2018-Feb-20 23:01N 33°57' E 131°56'0 0.0
2018-Feb-20 22:30N 33°57' E 131°56'0 0.0
2018-Feb-20 22:00N 33°57' E 131°56'1 2.3
2018-Feb-20 21:31N 33°56' E 131°56'0 0.1
2018-Feb-20 20:37N 33°56' E 131°56'0 0.0
2018-Feb-20 20:28N 33°56' E 131°56'0 0.1
2018-Feb-20 20:00N 33°56' E 131°56'0 0.1
2018-Feb-20 19:31N 33°56' E 131°56'0 0.1
2018-Feb-20 19:01N 33°56' E 131°56'0 0.0
2018-Feb-20 18:29N 33°56' E 131°56'0 0.0
2018-Feb-20 18:01N 33°56' E 131°56'0 0.1
2018-Feb-20 17:30N 33°56' E 131°56'0 0.0
2018-Feb-20 17:00N 33°56' E 131°56'0 0.0
2018-Feb-20 16:29N 33°56' E 131°56'0 0.1
2018-Feb-20 16:01N 33°56' E 131°56'0 0.1
2018-Feb-20 15:30N 33°56' E 131°56'0 0.0
2018-Feb-20 14:58N 33°56' E 131°56'0 0.1
2018-Feb-20 14:24N 33°56' E 131°56'0 0.0
2018-Feb-20 14:00N 33°56' E 131°56'0 0.1
2018-Feb-20 13:30N 33°56' E 131°56'0 0.0
2018-Feb-20 13:01N 33°56' E 131°56'0 0.1
2018-Feb-20 12:25N 33°56' E 131°56'0 0.0
2018-Feb-20 11:43N 33°56' E 131°56'0 0.0
2018-Feb-20 11:23N 33°56' E 131°56'0 0.0
2018-Feb-20 10:58N 33°56' E 131°56'0 0.0
2018-Feb-20 09:07N 33°56' E 131°56'0 0.0
2018-Feb-20 08:39N 33°56' E 131°56'0 0.1
2018-Feb-20 08:29N 33°56' E 131°56'0 0.0
2018-Feb-20 07:58N 33°56' E 131°56'0 0.0
2018-Feb-20 07:31N 33°56' E 131°56'0 0.0
2018-Feb-20 06:11N 33°56' E 131°56'0 0.0
2018-Feb-20 05:58N 33°56' E 131°56'0 0.0
2018-Feb-20 05:27N 33°56' E 131°56'0 0.0
2018-Feb-20 04:54N 33°56' E 131°56'0 0.0
2018-Feb-20 04:29N 33°56' E 131°56'0 0.0
2018-Feb-20 03:47N 33°56' E 131°56'0 0.0
2018-Feb-20 03:29N 33°56' E 131°56'0 0.0
2018-Feb-20 02:52N 33°56' E 131°56'0 0.0
2018-Feb-20 01:32N 33°56' E 131°56'0 0.2
2018-Feb-20 01:31N 33°56' E 131°56'0 0.1
2018-Feb-20 01:00N 33°56' E 131°56'0 0.1
2018-Feb-20 00:09N 33°56' E 131°56'0 0.0
2018-Feb-20 00:00N 33°56' E 131°56'0 0.0
2018-Feb-19 23:30N 33°56' E 131°56'0 0.0
2018-Feb-19 21:56N 33°56' E 131°56'0 0.0
2018-Feb-19 20:28N 33°56' E 131°56'5 9.8
2018-Feb-19 20:00N 33°52' E 131°55'712.8
2018-Feb-19 19:30N 33°45' E 131°53'612.6
2018-Feb-19 19:01N 33°40' E 131°51'611.7
2018-Feb-19 18:30N 33°34' E 131°49'611.6
2018-Feb-19 18:01N 33°29' E 131°47'611.9
2018-Feb-19 17:29N 33°23' E 131°43'8 5.7
2018-Feb-19 16:08N 33°16' E 131°40'0 0.0
2018-Feb-19 16:00N 33°16' E 131°40'0 0.0
2018-Feb-19 15:31N 33°16' E 131°40'0 0.0
2018-Feb-19 15:01N 33°16' E 131°40'0 0.0
2018-Feb-19 14:30N 33°16' E 131°40'0 0.0
2018-Feb-19 14:00N 33°16' E 131°40'0 0.0
2018-Feb-19 13:30N 33°16' E 131°40'0 0.0
2018-Feb-19 13:00N 33°16' E 131°40'0 0.0
2018-Feb-19 12:24N 33°16' E 131°40'0 0.0
2018-Feb-19 10:32N 33°16' E 131°40'0 0.1
2018-Feb-19 10:25N 33°16' E 131°40'0 0.0
2018-Feb-19 10:00N 33°16' E 131°40'3 6.4
2018-Feb-19 09:31N 33°19' E 131°41'713.7
2018-Feb-19 08:59N 33°25' E 131°44'713.6
2018-Feb-19 08:30N 33°31' E 131°47'713.8
2018-Feb-19 08:00N 33°38' E 131°49'713.8
2018-Feb-19 07:30N 33°45' E 131°51'713.8
2018-Feb-19 07:00N 33°51' E 131°54'612.5
2018-Feb-19 06:30N 33°57' E 131°56'0 0.4
2018-Feb-19 06:00N 33°57' E 131°56'0 0.0
2018-Feb-19 05:30N 33°57' E 131°56'0 0.0
2018-Feb-19 05:00N 33°57' E 131°56'0 0.0
2018-Feb-19 04:30N 33°57' E 131°56'0 0.0
2018-Feb-19 03:59N 33°57' E 131°56'0 0.0
2018-Feb-19 03:30N 33°57' E 131°56'0 0.0
2018-Feb-19 03:00N 33°57' E 131°56'0 0.0
2018-Feb-19 02:30N 33°57' E 131°56'0 0.0
2018-Feb-19 01:59N 33°57' E 131°56'0 0.0
2018-Feb-19 01:30N 33°57' E 131°56'0 0.0
2018-Feb-19 01:00N 33°57' E 131°56'0 0.0
2018-Feb-19 00:30N 33°57' E 131°56'0 0.0
2018-Feb-19 00:00N 33°57' E 131°56'0 0.0
2018-Feb-18 23:30N 33°57' E 131°56'0 0.0
2018-Feb-18 23:00N 33°57' E 131°56'0 0.0
2018-Feb-18 22:30N 33°57' E 131°56'0 0.0
2018-Feb-18 22:00N 33°57' E 131°56'0 0.0
2018-Feb-18 21:30N 33°57' E 131°56'0 0.0
2018-Feb-18 21:00N 33°57' E 131°56'0 0.0
2018-Feb-18 20:30N 33°57' E 131°56'2 3.2
2018-Feb-18 20:00N 33°56' E 131°56'712.9
2018-Feb-18 19:29N 33°49' E 131°54'612.7
2018-Feb-18 19:00N 33°43' E 131°52'712.4
2018-Feb-18 18:24N 33°36' E 131°49'611.7
2018-Feb-18 17:54N 33°31' E 131°47'511.7
2018-Feb-18 17:27N 33°26' E 131°45'612.2
2018-Feb-18 17:00N 33°21' E 131°42'5 0.7
2018-Feb-18 09:11N 33°16' E 131°40'0 0.6
2018-Feb-18 08:57N 33°16' E 131°40'0 0.8
2018-Feb-18 08:30N 33°16' E 131°40'4 7.2
2018-Feb-18 08:00N 33°20' E 131°40'2 1.3
2018-Feb-18 06:07N 33°22' E 131°40'0 0.0
2018-Feb-18 05:25N 33°22' E 131°40'0 0.0
2018-Feb-18 04:59N 33°22' E 131°40'0 0.0
2018-Feb-18 03:46N 33°22' E 131°40'0 0.0
2018-Feb-18 03:16N 33°22' E 131°40'0 0.0
2018-Feb-18 01:59N 33°22' E 131°40'0 0.0
2018-Feb-18 01:28N 33°22' E 131°40'0 0.0
2018-Feb-18 00:59N 33°22' E 131°40'0 0.0
2018-Feb-18 00:30N 33°22' E 131°40'0 0.1
2018-Feb-17 23:59N 33°22' E 131°40'0 0.0
2018-Feb-17 23:26N 33°22' E 131°40'0 0.0
2018-Feb-17 22:59N 33°22' E 131°40'0 0.0
2018-Feb-17 22:28N 33°22' E 131°40'0 0.0
2018-Feb-17 20:39N 33°22' E 131°40'0 0.0
2018-Feb-17 14:41N 33°22' E 131°40'0 0.0
2018-Feb-17 14:22N 33°22' E 131°40'0 0.0
2018-Feb-17 14:00N 33°22' E 131°40'0 0.0
2018-Feb-17 13:28N 33°22' E 131°40'0 0.0
2018-Feb-17 12:59N 33°22' E 131°40'0 0.0
2018-Feb-17 12:26N 33°22' E 131°40'0 0.0
2018-Feb-17 12:00N 33°22' E 131°40'0 0.0
2018-Feb-17 11:30N 33°22' E 131°40'0 0.0
2018-Feb-17 11:00N 33°22' E 131°40'0 0.0
2018-Feb-17 10:30N 33°22' E 131°40'1 2.2
2018-Feb-17 10:00N 33°23' E 131°41'612.7
2018-Feb-17 09:30N 33°28' E 131°46'612.4
2018-Feb-17 09:00N 33°34' E 131°47'612.9
2018-Feb-17 08:30N 33°41' E 131°48'713.2
2018-Feb-17 08:00N 33°46' E 131°51'713.5
2018-Feb-17 07:30N 33°53' E 131°53'5 9.8
2018-Feb-17 07:00N 33°57' E 131°56'0 0.0
2018-Feb-17 06:30N 33°57' E 131°56'0 0.0
2018-Feb-17 06:00N 33°57' E 131°56'0 0.0
2018-Feb-17 05:30N 33°57' E 131°56'0 0.0
2018-Feb-17 05:00N 33°57' E 131°56'0 0.0
2018-Feb-17 04:30N 33°57' E 131°56'0 0.0
2018-Feb-17 04:00N 33°57' E 131°56'0 0.0
2018-Feb-17 03:30N 33°57' E 131°56'0 0.0
2018-Feb-17 02:59N 33°57' E 131°56'0 0.0
2018-Feb-17 02:30N 33°57' E 131°56'0 0.0
2018-Feb-17 02:00N 33°57' E 131°56'0 0.0
2018-Feb-17 01:30N 33°57' E 131°56'0 0.0
2018-Feb-17 01:00N 33°57' E 131°56'0 0.0
2018-Feb-17 00:30N 33°57' E 131°56'0 0.0
2018-Feb-16 23:59N 33°57' E 131°56'0 0.0
2018-Feb-16 23:30N 33°57' E 131°56'0 0.0
2018-Feb-16 23:00N 33°57' E 131°56'0 0.0
2018-Feb-16 22:30N 33°57' E 131°56'0 0.0
2018-Feb-16 22:00N 33°57' E 131°56'0 0.0
2018-Feb-16 21:30N 33°57' E 131°56'1 1.7
2018-Feb-16 21:00N 33°57' E 131°56'611.8
2018-Feb-16 20:28N 33°51' E 131°53'613.0
2018-Feb-16 20:00N 33°46' E 131°48'611.8
2018-Feb-16 19:28N 33°40' E 131°50'612.7
2018-Feb-16 19:00N 33°34' E 131°48'812.9
2018-Feb-16 18:21N 33°26' E 131°45'512.6
2018-Feb-16 17:59N 33°22' E 131°44'612.5
2018-Feb-16 17:29N 33°16' E 131°40'1 0.1
2018-Feb-16 10:10N 33°16' E 131°40'0 2.5
2018-Feb-16 09:59N 33°16' E 131°40'511.4
2018-Feb-16 09:30N 33°21' E 131°42'713.3
2018-Feb-16 09:00N 33°27' E 131°46'612.7
2018-Feb-16 08:30N 33°33' E 131°48'713.0
2018-Feb-16 08:00N 33°40' E 131°50'713.5
2018-Feb-16 07:30N 33°46' E 131°52'713.6
2018-Feb-16 07:00N 33°52' E 131°55'510.1
2018-Feb-16 06:30N 33°57' E 131°56'0 0.0
2018-Feb-16 06:00N 33°57' E 131°56'0 0.0
2018-Feb-16 05:30N 33°57' E 131°56'0 0.0
2018-Feb-16 05:00N 33°57' E 131°56'0 0.0
2018-Feb-16 04:30N 33°57' E 131°56'0 0.0
2018-Feb-16 04:00N 33°57' E 131°56'0 0.0
2018-Feb-16 03:30N 33°57' E 131°56'0 0.0
2018-Feb-16 03:00N 33°57' E 131°56'0 0.0
2018-Feb-16 02:28N 33°57' E 131°56'0 0.0
2018-Feb-16 02:00N 33°57' E 131°56'0 0.0
2018-Feb-16 01:30N 33°57' E 131°56'0 0.0
2018-Feb-16 01:00N 33°57' E 131°56'0 0.0
2018-Feb-16 00:30N 33°57' E 131°56'0 0.0
2018-Feb-16 00:00N 33°57' E 131°56'0 0.0
2018-Feb-15 23:30N 33°57' E 131°56'0 0.0
2018-Feb-15 23:00N 33°57' E 131°56'0 0.0
2018-Feb-15 22:30N 33°57' E 131°56'1 1.1
2018-Feb-15 22:00N 33°57' E 131°56'0 0.7
2018-Feb-15 21:25N 33°57' E 131°56'0 0.0
2018-Feb-15 20:55N 33°57' E 131°56'0 0.0
2018-Feb-15 20:27N 33°57' E 131°56'0 0.0
2018-Feb-15 20:00N 33°57' E 131°56'0 0.0
2018-Feb-15 19:26N 33°57' E 131°56'0 0.0
2018-Feb-15 17:59N 33°57' E 131°56'510.1
2018-Feb-15 17:28N 33°52' E 131°55'612.9
2018-Feb-15 16:59N 33°45' E 131°53'611.3
2018-Feb-15 16:29N 33°40' E 131°50'611.6
2018-Feb-15 16:00N 33°35' E 131°49'611.4
2018-Feb-15 15:29N 33°29' E 131°47'711.8
2018-Feb-15 14:56N 33°23' E 131°44'512.7
2018-Feb-15 14:30N 33°18' E 131°41'3 3.5
2018-Feb-15 13:46N 33°16' E 131°40'0 0.0
2018-Feb-15 13:17N 33°16' E 131°40'0 0.0
2018-Feb-15 12:44N 33°16' E 131°40'0 0.0
2018-Feb-15 12:30N 33°16' E 131°40'0 0.0
2018-Feb-15 12:00N 33°16' E 131°40'0 0.0
2018-Feb-15 11:23N 33°16' E 131°40'0 0.0
2018-Feb-15 10:39N 33°16' E 131°40'0 0.0
2018-Feb-15 10:30N 33°16' E 131°40'0 0.0
2018-Feb-15 09:59N 33°16' E 131°40'0 0.0
2018-Feb-15 09:29N 33°16' E 131°40'0 0.0
2018-Feb-15 09:00N 33°16' E 131°40'0 0.0
2018-Feb-15 08:29N 33°16' E 131°40'0 0.0
2018-Feb-15 08:00N 33°16' E 131°40'0 0.0
2018-Feb-15 07:30N 33°16' E 131°40'0 0.0
2018-Feb-15 06:58N 33°16' E 131°40'0 0.0
2018-Feb-15 06:22N 33°16' E 131°40'0 0.0
2018-Feb-15 05:57N 33°16' E 131°40'0 0.0
2018-Feb-15 05:30N 33°16' E 131°40'0 0.0
2018-Feb-15 05:00N 33°16' E 131°40'0 0.0
2018-Feb-15 04:29N 33°16' E 131°40'0 0.0
2018-Feb-15 04:00N 33°16' E 131°40'0 0.0
2018-Feb-15 03:26N 33°16' E 131°40'1 0.8
2018-Feb-15 02:47N 33°16' E 131°40'3 0.2
2018-Feb-14 09:38N 33°15' E 131°36'0 3.6
2018-Feb-14 09:30N 33°15' E 131°36'713.0
2018-Feb-14 08:58N 33°21' E 131°41'613.4
2018-Feb-14 08:29N 33°27' E 131°45'612.6
2018-Feb-14 08:00N 33°32' E 131°47'612.9
2018-Feb-14 07:30N 33°39' E 131°49'612.9
2018-Feb-14 07:00N 33°45' E 131°51'813.2
2018-Feb-14 06:26N 33°52' E 131°54'512.4
2018-Feb-14 06:00N 33°57' E 131°56'0 0.6
2018-Feb-14 05:31N 33°57' E 131°56'0 0.0
2018-Feb-14 05:00N 33°57' E 131°56'0 0.0
2018-Feb-14 04:29N 33°57' E 131°56'0 0.0
2018-Feb-14 04:00N 33°57' E 131°56'0 0.0
2018-Feb-14 03:30N 33°57' E 131°56'0 0.0
2018-Feb-14 03:00N 33°57' E 131°56'0 0.0
2018-Feb-14 02:30N 33°57' E 131°56'0 0.0
2018-Feb-14 01:53N 33°57' E 131°56'0 0.0
2018-Feb-14 01:30N 33°57' E 131°56'0 0.0
2018-Feb-14 00:59N 33°57' E 131°56'0 0.0
2018-Feb-14 00:30N 33°57' E 131°56'0 0.0
2018-Feb-14 00:00N 33°57' E 131°56'0 0.0
2018-Feb-13 23:30N 33°57' E 131°56'0 0.0
2018-Feb-13 23:00N 33°57' E 131°56'0 0.0
2018-Feb-13 22:30N 33°57' E 131°56'0 0.0
2018-Feb-13 22:00N 33°57' E 131°56'1 1.6
2018-Feb-13 21:30N 33°57' E 131°56'0 0.0
2018-Feb-13 21:00N 33°57' E 131°56'0 0.0
2018-Feb-13 20:30N 33°57' E 131°56'0 0.0
2018-Feb-13 20:00N 33°57' E 131°56'0 0.0
2018-Feb-13 19:30N 33°57' E 131°56'0 0.0
2018-Feb-13 19:00N 33°57' E 131°56'0 0.1
2018-Feb-13 18:30N 33°57' E 131°56'0 0.1
2018-Feb-13 18:00N 33°57' E 131°56'0 0.0
2018-Feb-13 17:30N 33°57' E 131°56'0 0.0
2018-Feb-13 17:00N 33°57' E 131°56'0 0.0
2018-Feb-13 16:30N 33°57' E 131°56'0 0.0
2018-Feb-13 15:59N 33°57' E 131°56'0 0.0
2018-Feb-13 15:29N 33°57' E 131°56'0 0.0
2018-Feb-13 15:00N 33°57' E 131°56'0 0.0
2018-Feb-13 14:30N 33°57' E 131°56'0 0.0
2018-Feb-13 14:00N 33°57' E 131°56'0 0.0
2018-Feb-13 13:30N 33°57' E 131°56'0 0.0
2018-Feb-13 13:00N 33°57' E 131°56'0 0.0
2018-Feb-13 12:29N 33°57' E 131°56'0 0.0
2018-Feb-13 12:00N 33°57' E 131°56'0 0.0
2018-Feb-13 11:30N 33°57' E 131°56'0 0.0
2018-Feb-13 10:57N 33°57' E 131°56'0 0.0
2018-Feb-13 10:29N 33°57' E 131°56'0 0.0
2018-Feb-13 10:00N 33°57' E 131°56'0 0.0
2018-Feb-13 09:28N 33°57' E 131°56'0 0.0
2018-Feb-13 09:00N 33°57' E 131°56'0 0.0
2018-Feb-13 08:26N 33°57' E 131°56'0 0.0
2018-Feb-13 07:58N 33°57' E 131°56'0 0.0
2018-Feb-13 07:30N 33°57' E 131°56'0 0.0
2018-Feb-13 06:59N 33°57' E 131°56'0 0.0
2018-Feb-13 06:27N 33°57' E 131°56'1 1.5
2018-Feb-13 05:58N 33°56' E 131°56'  

Dump ship's entire track history